createdAt,value
2023-06-15T00:00:08.299Z,99794.31
2023-06-15T00:02:36.691Z,99801.09
2023-06-15T00:05:04.878Z,99795.38
2023-06-15T00:07:32.802Z,99798.66
2023-06-15T00:10:00.893Z,99794.53
2023-06-15T00:12:30.214Z,99796.53
2023-06-15T00:14:58.583Z,99794.19
2023-06-15T00:17:26.476Z,99800.44
2023-06-15T00:19:54.805Z,99792.69
2023-06-15T00:22:22.741Z,99797.59
2023-06-15T00:24:50.623Z,99797.06
2023-06-15T00:27:18.519Z,99790.91
2023-06-15T00:29:47.843Z,99789.84
2023-06-15T00:32:15.900Z,99800.63
2023-06-15T00:34:44.012Z,99799.06
2023-06-15T00:37:11.831Z,99793.22
2023-06-15T00:39:39.787Z,99792.38
2023-06-15T00:42:08.101Z,99792.47
2023-06-15T00:44:36.123Z,99789.44
2023-06-15T00:47:06.098Z,99794.06
2023-06-15T00:49:34.113Z,99788.78
2023-06-15T00:52:02.500Z,99784.13
2023-06-15T00:54:31.309Z,99791.28
2023-06-15T00:56:59.652Z,99789.41
2023-06-15T00:59:29.697Z,99795.31
2023-06-15T01:01:57.627Z,99783.28
2023-06-15T01:04:27.030Z,99786.97
2023-06-15T01:06:58.214Z,99790.56
2023-06-15T01:09:26.862Z,99789.59
2023-06-15T01:11:56.734Z,99787.16
2023-06-15T01:14:25.955Z,99781.50
2023-06-15T01:16:55.010Z,99783.22
2023-06-15T01:19:35.653Z,99776.44
2023-06-15T01:22:10.120Z,99775.78
2023-06-15T01:24:38.845Z,99774.47
2023-06-15T01:27:10.752Z,99774.25
2023-06-15T01:29:42.529Z,99773.59
2023-06-15T01:32:11.315Z,99772.75
2023-06-15T01:34:39.303Z,99769.34
2023-06-15T01:37:07.578Z,99769.34
2023-06-15T01:39:35.454Z,99776.44
2023-06-15T01:42:03.671Z,99778.53
2023-06-15T01:44:33.101Z,99779.38
2023-06-15T01:47:01.008Z,99774.00
2023-06-15T01:49:29.376Z,99775.03
2023-06-15T01:51:57.333Z,99771.63
2023-06-15T01:54:25.200Z,99769.28
2023-06-15T01:56:53.073Z,99770.16
2023-06-15T01:59:20.966Z,99771.63
2023-06-15T02:01:50.269Z,99773.38
2023-06-15T02:04:18.292Z,99776.63
2023-06-15T02:06:46.180Z,99777.69
2023-06-15T02:09:14.073Z,99775.78
2023-06-15T02:11:43.234Z,99780.22
2023-06-15T02:14:11.372Z,99785.50
2023-06-15T02:16:39.498Z,99776.53
2023-06-15T02:19:08.712Z,99775.78
2023-06-15T02:21:36.565Z,99785.50
2023-06-15T02:24:04.574Z,99786.16
2023-06-15T02:26:32.525Z,99789.28
2023-06-15T02:29:00.376Z,99790.53
2023-06-15T02:31:28.668Z,99793.53
2023-06-15T02:33:56.618Z,99790.25
2023-06-15T02:36:25.901Z,99791.28
2023-06-15T02:38:53.798Z,99799.31
2023-06-15T02:41:21.639Z,99796.47
2023-06-15T02:43:49.917Z,99797.41
2023-06-15T02:46:17.753Z,99794.78
2023-06-15T02:48:46.260Z,99790.34
2023-06-15T02:51:14.251Z,99793.34
2023-06-15T02:53:45.017Z,99791.84
2023-06-15T02:56:12.921Z,99789.31
2023-06-15T02:58:43.445Z,99789.88
2023-06-15T03:01:12.528Z,99786.28
2023-06-15T03:03:41.849Z,99790.28
2023-06-15T03:06:10.831Z,99781.28
2023-06-15T03:08:39.349Z,99779.00
2023-06-15T03:11:08.968Z,99785.34
2023-06-15T03:13:37.197Z,99778.72
2023-06-15T03:16:08.435Z,99780.06
2023-06-15T03:18:36.310Z,99786.44
2023-06-15T03:21:09.014Z,99789.31
2023-06-15T03:23:38.351Z,99796.94
2023-06-15T03:26:07.779Z,99793.88
2023-06-15T03:28:41.212Z,99791.22
2023-06-15T03:31:10.260Z,99783.59
2023-06-15T03:33:38.647Z,99792.78
2023-06-15T03:36:06.572Z,99793.38
2023-06-15T03:38:34.471Z,99798.03
2023-06-15T03:41:02.288Z,99796.31
2023-06-15T03:43:30.212Z,99794.47
2023-06-15T03:45:59.443Z,99792.84
2023-06-15T03:48:27.298Z,99797.06
2023-06-15T03:50:55.176Z,99793.66
2023-06-15T03:53:23.303Z,99786.03
2023-06-15T03:55:51.200Z,99799.44
2023-06-15T03:58:19.016Z,99798.81
2023-06-15T04:00:46.886Z,99798.50
2023-06-15T04:03:16.164Z,99803.44
2023-06-15T04:05:44.571Z,99807.88
2023-06-15T04:08:12.511Z,99805.06
2023-06-15T04:10:40.408Z,99803.84
2023-06-15T04:13:08.283Z,99802.31
2023-06-15T04:15:36.172Z,99793.91
2023-06-15T04:18:04.590Z,99799.66
2023-06-15T04:20:34.154Z,99797.25
2023-06-15T04:23:01.967Z,99795.72
2023-06-15T04:25:30.284Z,99800.41
2023-06-15T04:27:58.861Z,99801.75
2023-06-15T04:30:26.874Z,99801.69
2023-06-15T04:32:58.662Z,99802.56
2023-06-15T04:35:30.279Z,99810.22
2023-06-15T04:37:59.597Z,99813.03
2023-06-15T04:40:27.667Z,99812.00
2023-06-15T04:42:55.510Z,99804.31
2023-06-15T04:45:23.406Z,99810.22
2023-06-15T04:47:51.396Z,99808.72
2023-06-15T04:50:20.296Z,99805.50
2023-06-15T04:52:48.177Z,99811.97
2023-06-15T04:55:17.684Z,99816.50
2023-06-15T04:57:45.853Z,99819.78
2023-06-15T05:00:14.859Z,99816.50
2023-06-15T05:02:43.009Z,99807.41
2023-06-15T05:05:11.179Z,99814.03
2023-06-15T05:07:39.024Z,99811.88
2023-06-15T05:10:08.659Z,99815.97
2023-06-15T05:12:37.934Z,99815.69
2023-06-15T05:15:06.196Z,99823.41
2023-06-15T05:17:34.299Z,99827.22
2023-06-15T05:20:02.647Z,99829.91
2023-06-15T05:22:30.594Z,99834.66
2023-06-15T05:24:58.565Z,99835.44
2023-06-15T05:27:26.793Z,99834.75
2023-06-15T05:29:56.262Z,99838.03
2023-06-15T05:32:25.526Z,99840.09
2023-06-15T05:34:56.056Z,99840.97
2023-06-15T05:37:24.720Z,99845.06
2023-06-15T05:39:52.510Z,99840.84
2023-06-15T05:42:20.429Z,99834.75
2023-06-15T05:44:49.023Z,99844.59
2023-06-15T05:47:19.028Z,99850.75
2023-06-15T05:49:46.873Z,99852.94
2023-06-15T05:52:16.595Z,99849.56
2023-06-15T05:54:45.460Z,99860.44
2023-06-15T05:57:13.593Z,99854.53
2023-06-15T05:59:41.485Z,99855.75
2023-06-15T06:02:25.090Z,99855.81
2023-06-15T06:04:54.846Z,99852.69
2023-06-15T06:07:23.435Z,99862.31
2023-06-15T06:09:51.485Z,99854.75
2023-06-15T06:12:19.520Z,99862.22
2023-06-15T06:14:47.949Z,99869.41
2023-06-15T06:17:37.282Z,99860.97
2023-06-15T06:20:05.840Z,99861.66
2023-06-15T06:22:33.984Z,99861.25
2023-06-15T06:25:02.059Z,99861.22
2023-06-15T06:27:31.397Z,99856.72
2023-06-15T06:30:01.053Z,99870.81
2023-06-15T06:32:28.949Z,99862.66
2023-06-15T06:34:57.179Z,99865.38
2023-06-15T06:37:27.359Z,99860.72
2023-06-15T06:39:58.438Z,99861.41
2023-06-15T06:42:27.307Z,99861.22
2023-06-15T06:44:55.371Z,99860.59
2023-06-15T06:47:24.329Z,99860.19
2023-06-15T06:49:53.101Z,99860.75
2023-06-15T06:52:21.003Z,99859.09
2023-06-15T06:55:06.548Z,99867.09
2023-06-15T06:57:34.471Z,99864.13
2023-06-15T07:00:02.259Z,99864.94
2023-06-15T07:02:30.215Z,99859.34
2023-06-15T07:04:58.165Z,99856.81
2023-06-15T07:07:26.125Z,99861.63
2023-06-15T07:09:56.482Z,99850.81
2023-06-15T07:12:24.382Z,99850.63
2023-06-15T07:14:52.424Z,99857.50
2023-06-15T07:17:20.313Z,99856.63
2023-06-15T07:19:48.191Z,99847.94
2023-06-15T07:22:16.108Z,99856.56
2023-06-15T07:24:45.082Z,99848.09
2023-06-15T07:27:14.492Z,99848.72
2023-06-15T07:29:43.061Z,99852.69
2023-06-15T07:32:11.101Z,99851.53
2023-06-15T07:34:39.092Z,99847.91
2023-06-15T07:37:07.546Z,99842.25
2023-06-15T07:39:36.726Z,99836.91
2023-06-15T07:42:04.631Z,99852.97
2023-06-15T07:44:34.283Z,99840.00
2023-06-15T07:47:02.468Z,99841.03
2023-06-15T07:49:45.076Z,99842.31
2023-06-15T07:52:14.563Z,99832.47
2023-06-15T07:54:43.502Z,99833.91
2023-06-15T07:57:12.607Z,99832.31
2023-06-15T07:59:42.164Z,99833.03
2023-06-15T08:02:10.637Z,99839.09
2023-06-15T08:04:38.812Z,99828.97
2023-06-15T08:07:08.744Z,99827.78
2023-06-15T08:09:36.767Z,99836.63
2023-06-15T08:12:07.225Z,99832.25
2023-06-15T08:14:37.639Z,99831.41
2023-06-15T08:17:12.336Z,99837.09
2023-06-15T08:19:44.785Z,99832.72
2023-06-15T08:22:13.921Z,99827.63
2023-06-15T08:24:42.549Z,99832.59
2023-06-15T08:33:09.570Z,99832.59
2023-06-15T08:35:51.775Z,99822.13
2023-06-15T08:38:21.166Z,99826.41
2023-06-15T08:40:50.152Z,99824.69
2023-06-15T08:43:37.105Z,99833.53
2023-06-15T08:49:08.851Z,99829.09
2023-06-15T08:51:40.599Z,99828.94
2023-06-15T08:54:13.534Z,99823.81
2023-06-15T08:56:46.323Z,99819.91
2023-06-15T08:59:15.643Z,99818.41
2023-06-15T09:01:47.948Z,99810.38
2023-06-15T09:04:37.185Z,99817.53
2023-06-15T09:07:07.105Z,99817.31
2023-06-15T09:12:25.416Z,99814.84
2023-06-15T09:14:53.852Z,99821.53
2023-06-15T09:23:20.179Z,99809.84
2023-06-15T09:25:53.124Z,99805.19
2023-06-15T09:28:23.278Z,99808.75
2023-06-15T09:30:57.915Z,99806.97
2023-06-15T09:33:27.352Z,99812.09
2023-06-15T09:36:04.030Z,99804.47
2023-06-15T09:38:40.627Z,99800.19
2023-06-15T09:41:11.184Z,99816.38
2023-06-15T09:43:41.828Z,99805.56
2023-06-15T09:46:12.949Z,99806.28
2023-06-15T09:48:41.272Z,99802.94
2023-06-15T09:51:11.213Z,99809.00
2023-06-15T09:53:43.401Z,99799.09
2023-06-15T09:56:29.024Z,99796.63
2023-06-15T09:59:00.789Z,99794.34
2023-06-15T10:01:33.121Z,99791.28
2023-06-15T10:04:01.517Z,99785.09
2023-06-15T10:06:32.229Z,99780.63
2023-06-15T10:09:06.275Z,99779.81
2023-06-15T10:11:38.710Z,99782.25
2023-06-15T10:17:08.294Z,99784.56
2023-06-15T10:19:42.524Z,99785.44
2023-06-15T10:22:17.760Z,99789.22
2023-06-15T10:24:48.241Z,99784.47
2023-06-15T10:27:17.696Z,99785.16
2023-06-15T10:29:50.763Z,99779.94
2023-06-15T10:32:23.455Z,99786.50
2023-06-15T10:34:56.333Z,99784.06
2023-06-15T10:37:29.220Z,99785.13
2023-06-15T10:40:02.020Z,99793.28
2023-06-15T10:42:31.147Z,99788.16
2023-06-15T10:45:01.632Z,99786.78
2023-06-15T10:47:29.894Z,99781.34
2023-06-15T10:50:00.190Z,99787.03
2023-06-15T10:52:35.521Z,99780.69
2023-06-15T10:55:11.861Z,99777.63
2023-06-15T10:57:40.848Z,99765.97
2023-06-15T11:00:12.046Z,99765.06
2023-06-15T11:02:50.364Z,99771.72
2023-06-15T11:05:21.009Z,99764.66
2023-06-15T11:07:50.660Z,99771.47
2023-06-15T11:10:23.108Z,99779.63
2023-06-15T11:12:54.103Z,99771.38
2023-06-15T11:15:22.204Z,99764.75
2023-06-15T11:17:58.098Z,99771.69
2023-06-15T11:20:56.057Z,99775.66
2023-06-15T11:23:25.881Z,99764.84
2023-06-15T11:25:55.707Z,99778.84
2023-06-15T11:30:56.739Z,99772.56
2023-06-15T11:33:29.624Z,99775.28
2023-06-15T11:36:00.046Z,99760.75
2023-06-15T11:38:31.072Z,99760.63
2023-06-15T11:41:04.961Z,99761.59
2023-06-15T11:43:35.614Z,99757.00
2023-06-15T11:46:04.106Z,99745.84
2023-06-15T11:48:33.184Z,99741.78
2023-06-15T11:51:03.127Z,99748.03
2023-06-15T11:53:32.250Z,99751.75
2023-06-15T11:56:00.639Z,99750.25
2023-06-15T11:58:29.915Z,99747.56
2023-06-15T12:00:59.238Z,99744.88
2023-06-15T12:03:27.702Z,99740.59
2023-06-15T12:06:01.116Z,99735.69
2023-06-15T12:08:29.454Z,99739.47
2023-06-15T12:10:58.872Z,99734.09
2023-06-15T12:13:27.384Z,99729.84
2023-06-15T12:15:56.736Z,99735.63
2023-06-15T12:18:24.676Z,99730.94
2023-06-15T12:20:52.770Z,99728.03
2023-06-15T12:23:28.167Z,99722.13
2023-06-15T12:25:58.153Z,99718.50
2023-06-15T12:28:27.363Z,99716.47
2023-06-15T12:31:04.103Z,99719.41
2023-06-15T12:33:32.887Z,99706.22
2023-06-15T12:36:01.655Z,99706.31
2023-06-15T12:38:31.259Z,99706.47
2023-06-15T12:40:59.335Z,99707.78
2023-06-15T12:43:28.120Z,99705.38
2023-06-15T12:45:56.601Z,99698.69
2023-06-15T12:48:40.582Z,99699.28
2023-06-15T12:51:23.413Z,99693.47
2023-06-15T12:53:53.176Z,99696.97
2023-06-15T12:56:21.251Z,99699.19
2023-06-15T12:58:49.201Z,99697.81
2023-06-15T13:01:17.674Z,99692.25
2023-06-15T13:03:47.105Z,99691.34
2023-06-15T13:06:15.693Z,99684.00
2023-06-15T13:08:44.279Z,99691.56
2023-06-15T13:11:15.783Z,99674.75
2023-06-15T13:13:43.776Z,99678.66
2023-06-15T13:16:11.706Z,99676.25
2023-06-15T13:18:39.658Z,99679.66
2023-06-15T13:21:07.940Z,99672.88
2023-06-15T13:23:36.165Z,99668.84
2023-06-15T13:26:04.254Z,99660.91
2023-06-15T13:28:33.692Z,99666.31
2023-06-15T13:31:03.056Z,99664.84
2023-06-15T13:33:30.976Z,99669.09
2023-06-15T13:35:59.016Z,99659.72
2023-06-15T13:38:27.263Z,99661.50
2023-06-15T13:40:55.121Z,99658.63
2023-06-15T13:43:23.278Z,99663.38
2023-06-15T13:46:00.003Z,99655.91
2023-06-15T13:48:28.043Z,99668.56
2023-06-15T13:50:55.966Z,99670.03
2023-06-15T13:53:23.844Z,99659.63
2023-06-15T13:55:51.827Z,99663.59
2023-06-15T13:58:19.691Z,99661.59
2023-06-15T14:00:47.561Z,99661.63
2023-06-15T14:03:17.491Z,99650.94
2023-06-15T14:05:45.814Z,99657.88
2023-06-15T14:08:13.901Z,99657.47
2023-06-15T14:10:42.182Z,99658.88
2023-06-15T14:13:10.821Z,99648.78
2023-06-15T14:15:39.122Z,99651.09
2023-06-15T14:18:07.078Z,99652.38
2023-06-15T14:20:36.306Z,99646.63
2023-06-15T14:23:04.283Z,99652.50
2023-06-15T14:25:32.336Z,99651.66
2023-06-15T14:28:00.172Z,99648.19
2023-06-15T14:30:28.049Z,99650.63
2023-06-15T14:32:56.030Z,99652.34
2023-06-15T14:35:24.067Z,99642.75
2023-06-15T14:37:54.159Z,99648.72
2023-06-15T14:40:22.430Z,99651.66
2023-06-15T14:42:53.025Z,99656.75
2023-06-15T14:45:30.193Z,99647.91
2023-06-15T14:48:05.431Z,99643.28
2023-06-15T14:50:45.399Z,99638.16
2023-06-15T14:53:17.894Z,99646.41
2023-06-15T14:55:46.431Z,99637.22
2023-06-15T14:58:19.503Z,99641.41
2023-06-15T15:00:47.520Z,99642.06
2023-06-15T15:03:15.959Z,99636.53
2023-06-15T15:05:44.420Z,99645.31
2023-06-15T15:08:14.439Z,99639.66
2023-06-15T15:10:59.700Z,99639.28
2023-06-15T15:13:30.032Z,99634.41
2023-06-15T15:15:58.144Z,99632.97
2023-06-15T15:18:26.036Z,99642.25
2023-06-15T15:20:56.358Z,99641.78
2023-06-15T15:23:24.699Z,99633.16
2023-06-15T15:25:54.244Z,99627.97
2023-06-15T15:28:22.483Z,99633.09
2023-06-15T15:30:58.579Z,99634.34
2023-06-15T15:33:27.368Z,99642.72
2023-06-15T15:35:55.321Z,99628.00
2023-06-15T15:38:37.261Z,99632.66
2023-06-15T15:41:05.265Z,99635.66
2023-06-15T15:43:33.450Z,99631.56
2023-06-15T15:46:03.011Z,99623.47
2023-06-15T15:48:31.168Z,99628.72
2023-06-15T15:51:00.023Z,99635.91
2023-06-15T15:53:28.006Z,99631.19
2023-06-15T15:55:55.940Z,99623.28
2023-06-15T15:58:23.794Z,99626.16
2023-06-15T16:00:52.281Z,99625.66
2023-06-15T16:03:21.915Z,99621.91
2023-06-15T16:05:49.915Z,99616.78
2023-06-15T16:08:17.910Z,99629.78
2023-06-15T16:10:47.093Z,99627.59
2023-06-15T16:13:16.058Z,99621.91
2023-06-15T16:15:46.703Z,99622.78
2023-06-15T16:18:17.217Z,99617.81
2023-06-15T16:20:51.260Z,99625.56
2023-06-15T16:23:34.234Z,99627.06
2023-06-15T16:26:05.060Z,99622.03
2023-06-15T16:28:49.072Z,99626.03
2023-06-15T16:31:17.605Z,99619.03
2023-06-15T16:33:46.417Z,99612.97
2023-06-15T16:36:16.534Z,99619.03
2023-06-15T16:38:44.884Z,99619.06
2023-06-15T16:41:14.066Z,99617.41
2023-06-15T16:43:44.168Z,99614.88
2023-06-15T16:46:14.785Z,99619.06
2023-06-15T16:51:11.277Z,99621.28
2023-06-15T16:53:43.024Z,99620.97
2023-06-15T16:56:12.240Z,99617.47
2023-06-15T16:58:41.266Z,99620.81
2023-06-15T17:01:09.284Z,99626.88
2023-06-15T17:03:39.927Z,99631.94
2023-06-15T17:06:08.785Z,99627.78
2023-06-15T17:08:37.155Z,99628.13
2023-06-15T17:11:13.731Z,99643.44
2023-06-15T17:13:42.963Z,99637.09
2023-06-15T17:16:11.700Z,99639.13
2023-06-15T17:21:24.506Z,99629.69
2023-06-15T17:23:52.596Z,99636.09
2023-06-15T17:26:22.718Z,99635.09
2023-06-15T17:28:52.400Z,99635.78
2023-06-15T17:31:20.837Z,99631.94
2023-06-15T17:34:01.499Z,99630.28
2023-06-15T17:36:38.129Z,99624.09
2023-06-15T17:39:08.996Z,99627.25
2023-06-15T17:41:38.471Z,99635.47
2023-06-15T17:44:06.762Z,99634.50
2023-06-15T17:46:35.196Z,99630.56
2023-06-15T17:49:03.438Z,99627.38
2023-06-15T17:51:31.752Z,99627.38
2023-06-15T17:53:59.842Z,99633.06
2023-06-15T17:56:28.083Z,99644.44
2023-06-15T17:58:57.849Z,99629.03
2023-06-15T18:01:26.356Z,99632.53
2023-06-15T18:03:55.077Z,99632.38
2023-06-15T18:06:23.617Z,99632.88
2023-06-15T18:08:51.925Z,99629.69
2023-06-15T18:11:20.076Z,99630.00
2023-06-15T18:13:48.073Z,99627.63
2023-06-15T18:16:17.559Z,99628.00
2023-06-15T18:18:45.669Z,99628.00
2023-06-15T18:21:13.885Z,99628.63
2023-06-15T18:23:41.725Z,99632.94
2023-06-15T18:26:10.311Z,99631.97
2023-06-15T18:28:38.997Z,99624.03
2023-06-15T18:31:06.971Z,99629.75
2023-06-15T18:33:36.478Z,99626.38
2023-06-15T18:36:04.530Z,99628.38
2023-06-15T18:38:34.566Z,99640.22
2023-06-15T18:41:03.687Z,99640.88
2023-06-15T18:43:31.894Z,99636.84
2023-06-15T18:45:59.817Z,99630.59
2023-06-15T18:48:27.850Z,99638.78
2023-06-15T18:50:57.763Z,99641.41
2023-06-15T18:53:28.184Z,99638.38
2023-06-15T18:55:56.588Z,99641.84
2023-06-15T18:58:24.636Z,99635.97
2023-06-15T19:00:52.726Z,99642.78
2023-06-15T19:03:21.070Z,99648.31
2023-06-15T19:05:51.349Z,99652.31
2023-06-15T19:08:21.630Z,99642.06
2023-06-15T19:10:50.631Z,99654.25
2023-06-15T19:13:24.223Z,99657.41
2023-06-15T19:15:52.888Z,99657.53
2023-06-15T19:18:21.455Z,99652.13
2023-06-15T19:20:51.961Z,99659.47
2023-06-15T19:23:21.744Z,99668.78
2023-06-15T19:25:51.513Z,99662.59
2023-06-15T19:28:20.692Z,99666.88
2023-06-15T19:30:49.912Z,99669.72
2023-06-15T19:33:18.017Z,99665.28
2023-06-15T19:35:46.419Z,99669.75
2023-06-15T19:38:14.344Z,99664.19
2023-06-15T19:40:46.702Z,99672.38
2023-06-15T19:43:15.377Z,99672.06
2023-06-15T19:45:44.225Z,99657.84
2023-06-15T19:48:12.090Z,99667.56
2023-06-15T19:50:40.360Z,99663.56
2023-06-15T19:53:08.540Z,99663.56
2023-06-15T19:55:41.720Z,99665.28
2023-06-15T19:58:11.265Z,99663.97
2023-06-15T20:00:39.153Z,99658.63
2023-06-15T20:03:07.516Z,99660.78
2023-06-15T20:05:35.976Z,99661.59
2023-06-15T20:08:06.022Z,99657.63
2023-06-15T20:10:33.846Z,99660.13
2023-06-15T20:13:02.664Z,99658.16
2023-06-15T20:15:32.575Z,99653.94
2023-06-15T20:18:01.927Z,99653.13
2023-06-15T20:20:29.973Z,99653.13
2023-06-15T20:22:57.860Z,99655.63
2023-06-15T20:25:26.106Z,99649.44
2023-06-15T20:27:53.968Z,99643.72
2023-06-15T20:30:22.053Z,99644.84
2023-06-15T20:32:51.330Z,99647.53
2023-06-15T20:35:19.417Z,99640.88
2023-06-15T20:37:47.318Z,99637.34
2023-06-15T20:40:16.385Z,99639.91
2023-06-15T20:42:45.730Z,99635.69
2023-06-15T20:45:13.606Z,99635.16
2023-06-15T20:47:41.717Z,99637.81
2023-06-15T20:50:11.691Z,99635.78
2023-06-15T20:52:42.096Z,99622.47
2023-06-15T20:55:11.038Z,99627.75
2023-06-15T20:57:39.061Z,99635.06
2023-06-15T21:00:07.851Z,99632.50
2023-06-15T21:02:38.132Z,99639.63
2023-06-15T21:05:08.537Z,99634.38
2023-06-15T21:07:38.080Z,99633.06
2023-06-15T21:10:06.374Z,99637.59
2023-06-15T21:12:34.337Z,99627.38
2023-06-15T21:15:02.196Z,99631.50
2023-06-15T21:17:30.125Z,99630.34
2023-06-15T21:19:58.057Z,99626.16
2023-06-15T21:22:26.015Z,99629.00
2023-06-15T21:24:55.306Z,99631.22
2023-06-15T21:27:23.134Z,99632.63
2023-06-15T21:29:51.230Z,99626.03
2023-06-15T21:32:21.812Z,99624.19
2023-06-15T21:34:49.890Z,99626.44
2023-06-15T21:37:18.493Z,99631.63
2023-06-15T21:39:46.427Z,99632.44
2023-06-15T21:42:15.966Z,99628.88
2023-06-15T21:44:46.743Z,99639.50
2023-06-15T21:47:14.703Z,99632.47
2023-06-15T21:49:42.574Z,99638.03
2023-06-15T21:52:11.575Z,99636.19
2023-06-15T21:54:39.931Z,99631.78
2023-06-15T21:57:08.029Z,99632.19
2023-06-15T21:59:37.687Z,99619.09
2023-06-15T22:02:05.932Z,99628.88
2023-06-15T22:04:33.766Z,99631.22
2023-06-15T22:07:01.807Z,99628.84
2023-06-15T22:09:29.731Z,99627.13
2023-06-15T22:11:57.746Z,99628.56
2023-06-15T22:14:25.615Z,99620.72
2023-06-15T22:16:56.900Z,99612.88
2023-06-15T22:19:25.860Z,99613.97
2023-06-15T22:21:54.868Z,99612.41
2023-06-15T22:24:24.010Z,99614.91
2023-06-15T22:26:52.130Z,99607.66
2023-06-15T22:29:20.506Z,99606.50
2023-06-15T22:31:49.216Z,99600.25
2023-06-15T22:34:18.843Z,99605.53
2023-06-15T22:36:46.766Z,99599.91
2023-06-15T22:39:14.653Z,99606.28
2023-06-15T22:41:43.667Z,99600.13
2023-06-15T22:44:11.661Z,99602.91
2023-06-15T22:46:39.977Z,99600.38
2023-06-15T22:49:10.217Z,99601.22
2023-06-15T22:51:40.977Z,99600.13
2023-06-15T22:54:09.046Z,99591.72
2023-06-15T22:56:37.498Z,99590.28
2023-06-15T22:59:05.398Z,99592.94
2023-06-15T23:01:33.242Z,99584.13
2023-06-15T23:04:01.181Z,99576.25
2023-06-15T23:06:30.564Z,99580.75
2023-06-15T23:09:01.183Z,99575.66
2023-06-15T23:11:29.034Z,99572.16
2023-06-15T23:13:56.961Z,99569.50
2023-06-15T23:16:24.946Z,99569.78
2023-06-15T23:18:54.900Z,99568.22
2023-06-15T23:21:23.610Z,99565.44
2023-06-15T23:23:59.477Z,99571.47
2023-06-15T23:26:30.966Z,99570.88
2023-06-15T23:29:00.770Z,99563.03
2023-06-15T23:31:28.808Z,99558.69
2023-06-15T23:33:57.067Z,99559.53
2023-06-15T23:36:24.981Z,99551.94
2023-06-15T23:38:52.922Z,99551.09
2023-06-15T23:41:23.165Z,99549.41
2023-06-15T23:43:53.008Z,99551.22
2023-06-15T23:46:21.068Z,99549.56
2023-06-15T23:48:49.466Z,99547.34
2023-06-15T23:51:18.084Z,99550.97
2023-06-15T23:53:46.370Z,99548.56
2023-06-15T23:56:14.302Z,99541.44
2023-06-15T23:58:42.266Z,99540.59
